Time;durP1;ratioP1;P1;durP2;ratioP2;P2;SDS_P1;SDS_P2;PMS_P1;PMS_P2;Temp;Humidity;BMP_temperature;BMP_pressure;BME280_temperature;BME280_humidity;BME280_pressure;Samples;Min_cycle;Max_cycle;Signal;HPM_P1;HPM_P2
2023/10/25 05:21:15;;;;;;;;;0.00;0.00;;;;;23.83;41.41;99090.91;5946757;23;46571;31
2023/10/25 05:23:41;;;;;;;;;0.00;0.00;;;;;23.84;41.44;99095.16;4842638;29;46815;-79
2023/10/25 05:26:07;;;;;;;;;0.00;0.00;;;;;23.71;41.41;99067.03;4843875;29;47051;-79
2023/10/25 05:28:32;;;;;;;;;0.00;0.00;;;;;23.75;41.72;99062.06;4843864;29;45436;-79
2023/10/25 05:31:03;;;;;;;;;1.00;0.00;;;;;23.89;41.58;99094.47;4845342;29;45453;-78
2023/10/25 05:33:31;;;;;;;;;1.00;1.00;;;;;23.91;41.83;99107.53;4844890;29;45483;-79
2023/10/25 05:35:58;;;;;;;;;2.00;0.00;;;;;23.92;42.17;99111.78;4843550;29;47279;-76
2023/10/25 05:38:23;;;;;;;;;0.00;0.00;;;;;23.88;42.13;99102.66;4833322;29;45552;-77
2023/10/25 05:40:51;;;;;;;;;0.00;0.00;;;;;23.82;41.73;99086.63;4840376;29;45410;-79
2023/10/25 05:43:27;;;;;;;;;0.00;0.00;;;;;23.95;42.01;99098.84;4845093;29;45440;-74
2023/10/25 05:45:52;;;;;;;;;0.00;0.00;;;;;23.94;42.12;99105.19;4844049;29;46248;-79
2023/10/25 05:48:18;;;;;;;;;0.00;0.00;;;;;23.97;41.89;99098.59;4842749;29;45426;-79
2023/10/25 05:50:45;;;;;;;;;0.67;0.67;;;;;23.91;42.06;99078.31;4844353;29;45535;-76
2023/10/25 05:53:13;;;;;;;;;0.00;0.00;;;;;23.84;42.10;99062.50;4844553;29;45388;-79
2023/10/25 05:55:39;;;;;;;;;0.00;0.00;;;;;23.82;41.89;99060.06;4844694;29;45377;-77
2023/10/25 05:58:04;;;;;;;;;0.00;0.00;;;;;23.96;41.95;99076.56;4844295;29;45323;-76
2023/10/25 06:00:30;;;;;;;;;0.00;0.00;;;;;23.93;41.96;99065.59;4844923;29;45420;-76
2023/10/25 06:02:56;;;;;;;;;0.33;0.33;;;;;23.95;42.31;99077.59;4843280;29;45632;-78
2023/10/25 06:05:23;;;;;;;;;1.33;0.33;;;;;23.95;42.01;99079.44;4840179;29;47156;-75
2023/10/25 06:07:49;;;;;;;;;0.00;0.00;;;;;23.94;41.78;99078.63;4834055;29;45536;-77
2023/10/25 06:10:15;;;;;;;;;0.00;0.00;;;;;23.93;41.88;99081.53;4835680;29;45548;-79
2023/10/25 06:12:41;;;;;;;;;1.67;0.00;;;;;23.94;41.70;99075.97;4837688;29;45470;-75
2023/10/25 06:15:07;;;;;;;;;0.00;0.00;;;;;23.95;42.22;99077.59;4842562;29;47509;-80
2023/10/25 06:17:33;;;;;;;;;1.00;0.00;;;;;23.93;41.94;99074.38;4842904;29;45424;-78
2023/10/25 06:19:59;;;;;;;;;0.00;0.00;;;;;23.95;41.96;99082.09;4842906;29;45408;-84
2023/10/25 06:22:24;;;;;;;;;0.67;0.00;;;;;23.87;42.05;99072.66;4842986;29;45294;-79
2023/10/25 06:24:49;;;;;;;;;0.00;0.00;;;;;23.64;42.14;99034.50;4843707;29;46070;-83
2023/10/25 06:27:15;;;;;;;;;1.33;0.00;;;;;23.96;42.14;99081.88;4843820;29;45488;-77
2023/10/25 06:29:40;;;;;;;;;0.33;0.33;;;;;23.98;41.85;99086.13;4844441;29;45468;-79
2023/10/25 06:32:05;;;;;;;;;2.00;0.00;;;;;23.94;42.51;99081.28;4844418;29;45337;-79
2023/10/25 06:34:31;;;;;;;;;2.33;1.00;;;;;23.96;42.40;99095.16;4844176;29;48490;-79
2023/10/25 06:36:56;;;;;;;;;0.00;0.00;;;;;23.82;42.37;99065.38;4844212;29;45435;-79
2023/10/25 06:39:22;;;;;;;;;0.33;0.33;;;;;23.95;42.16;99085.56;4844648;29;45307;-79
2023/10/25 06:41:48;;;;;;;;;0.00;0.00;;;;;23.85;42.36;99080.03;4844610;29;45312;-79
2023/10/25 06:44:14;;;;;;;;;2.00;0.00;;;;;23.93;42.38;99095.63;4844286;29;46030;-79
2023/10/25 06:46:39;;;;;;;;;3.00;1.00;;;;;23.90;42.20;99101.41;4844118;29;45762;-80
2023/10/25 06:49:05;;;;;;;;;0.00;0.00;;;;;23.75;42.27;99093.94;4844323;29;45278;-79
2023/10/25 06:51:31;;;;;;;;;1.00;1.00;;;;;23.88;42.17;99105.31;4844525;29;45577;-79
2023/10/25 06:53:57;;;;;;;;;0.67;0.67;;;;;23.92;42.33;99112.59;4844422;29;46158;-79
2023/10/25 06:56:22;;;;;;;;;0.00;0.00;;;;;23.89;42.29;99115.69;4843917;29;45369;-80
2023/10/25 06:58:49;;;;;;;;;0.33;0.33;;;;;23.62;41.82;99076.41;4844188;29;45419;-79
2023/10/25 07:01:19;;;;;;;;;0.00;0.00;;;;;23.88;42.34;99123.91;4844066;29;45584;-79
2023/10/25 07:03:46;;;;;;;;;0.00;0.00;;;;;23.87;42.02;99120.44;4843756;29;47097;-80
2023/10/25 07:06:12;;;;;;;;;2.00;0.00;;;;;23.83;42.19;99120.13;4843255;29;45451;-79
2023/10/25 07:08:38;;;;;;;;;0.00;0.00;;;;;23.87;42.66;99120.44;4843979;29;45505;-79
2023/10/25 07:11:03;;;;;;;;;0.00;0.00;;;;;23.80;42.29;99103.84;4844289;29;45409;-79
2023/10/25 07:13:29;;;;;;;;;0.00;0.00;;;;;23.89;42.38;99126.31;4843637;29;45957;-80
2023/10/25 07:15:56;;;;;;;;;0.00;0.00;;;;;23.89;42.06;99126.31;4844086;29;45686;-79
2023/10/25 07:18:21;;;;;;;;;1.33;0.00;;;;;23.89;42.12;99126.31;4843874;29;45329;-79
2023/10/25 07:20:47;;;;;;;;;0.00;0.00;;;;;23.79;42.14;99112.84;4843468;29;45293;-79
2023/10/25 07:23:12;;;;;;;;;1.00;0.00;;;;;23.88;42.46;99138.00;4843563;29;46817;-80
2023/10/25 07:25:38;;;;;;;;;1.00;1.00;;;;;23.77;42.21;99130.88;4843490;29;45401;-79
2023/10/25 07:28:07;;;;;;;;;0.00;0.00;;;;;23.89;42.45;99152.88;4843742;29;45380;-79
2023/10/25 07:30:33;;;;;;;;;0.00;0.00;;;;;23.89;42.14;99142.25;4843674;29;45383;-79
2023/10/25 07:32:59;;;;;;;;;0.00;0.00;;;;;23.74;42.20;99117.03;4843082;29;45409;-79
2023/10/25 07:35:24;;;;;;;;;1.00;0.00;;;;;23.89;42.37;99150.22;4843148;29;45364;-79
2023/10/25 07:37:49;;;;;;;;;0.00;0.00;;;;;23.73;42.40;99126.00;4843677;29;45323;-79
2023/10/25 07:40:15;;;;;;;;;0.67;0.67;;;;;23.89;42.38;99144.91;4843527;29;45354;-79
2023/10/25 07:42:40;;;;;;;;;0.00;0.00;;;;;23.89;42.09;99146.78;4843253;29;46243;-79
2023/10/25 07:45:06;;;;;;;;;0.00;0.00;;;;;23.74;42.05;99132.94;4843455;29;45498;-79
2023/10/25 07:47:31;;;;;;;;;0.00;0.00;;;;;23.78;42.20;99130.66;4843615;29;45360;-79
2023/10/25 07:49:57;;;;;;;;;0.00;0.00;;;;;23.88;42.29;99139.84;4842115;29;45507;-78
2023/10/25 07:52:23;;;;;;;;;0.00;0.00;;;;;23.54;42.05;99096.16;4843484;29;47149;-79
2023/10/25 07:54:49;;;;;;;;;0.00;0.00;;;;;23.88;42.30;99151.28;4843248;29;45342;-79
2023/10/25 07:57:15;;;;;;;;;3.00;0.00;;;;;23.86;42.21;99145.41;4843349;29;45521;-80
2023/10/25 07:59:40;;;;;;;;;0.00;0.00;;;;;23.84;42.18;99142.97;4843452;29;45512;-79
2023/10/25 08:02:06;;;;;;;;;1.00;1.00;;;;;23.85;42.24;99154.41;4843398;29;45655;-79
2023/10/25 08:04:31;;;;;;;;;2.00;1.00;;;;;23.73;42.18;99136.63;4843089;29;45334;-79
2023/10/25 08:06:57;;;;;;;;;1.67;0.67;;;;;23.74;42.43;99148.06;4843739;29;45376;-80
2023/10/25 08:09:22;;;;;;;;;1.00;1.00;;;;;23.81;42.23;99153.28;4843793;29;45430;-79
2023/10/25 08:11:47;;;;;;;;;0.00;0.00;;;;;23.67;42.35;99136.78;4844158;29;45900;-79
2023/10/25 08:14:13;;;;;;;;;1.00;1.00;;;;;23.85;42.10;99163.19;4844098;29;45460;-79
2023/10/25 08:16:42;;;;;;;;;0.67;0.00;;;;;23.80;42.13;99155.13;4843027;29;45414;-80
2023/10/25 08:19:08;;;;;;;;;2.00;0.67;;;;;23.87;42.31;99170.09;4842808;29;45430;-80
2023/10/25 08:21:33;;;;;;;;;1.00;0.00;;;;;23.80;42.42;99154.31;4842835;29;46358;-80
2023/10/25 08:23:59;;;;;;;;;0.00;0.00;;;;;23.84;42.39;99171.38;4842834;29;45463;-80
2023/10/25 08:26:27;;;;;;;;;0.00;0.00;;;;;23.85;42.31;99167.69;4843256;29;45735;-78
2023/10/25 08:28:52;;;;;;;;;0.67;0.00;;;;;23.79;42.29;99157.97;4843719;29;45447;-80
2023/10/25 08:31:19;;;;;;;;;1.00;0.00;;;;;23.86;42.02;99171.97;4842758;29;45804;-80
2023/10/25 08:33:45;;;;;;;;;0.33;0.33;;;;;23.86;42.15;99171.97;4842515;29;45332;-79
2023/10/25 08:36:11;;;;;;;;;0.00;0.00;;;;;23.85;42.59;99175.66;4841492;29;45446;-79
2023/10/25 08:38:37;;;;;;;;;0.00;0.00;;;;;23.87;41.99;99172.75;4842812;29;45465;-79
2023/10/25 08:41:06;;;;;;;;;0.33;0.33;;;;;23.84;42.25;99169.53;4842828;29;45489;-78
2023/10/25 08:43:36;;;;;;;;;2.00;0.00;;;;;23.79;42.04;99165.94;4843572;29;45398;-79
2023/10/25 08:46:03;;;;;;;;;0.00;0.00;;;;;23.84;42.23;99169.53;4846125;29;45363;-79
2023/10/25 08:48:28;;;;;;;;;0.00;0.00;;;;;23.80;42.02;99165.72;4845584;29;45376;-79
2023/10/25 08:50:55;;;;;;;;;0.00;0.00;;;;;23.72;42.33;99150.16;4846290;29;46665;-80
2023/10/25 08:53:30;;;;;;;;;3.67;0.00;;;;;23.55;42.19;99123.53;4846661;29;45404;-79
2023/10/25 08:55:57;;;;;;;;;2.33;1.00;;;;;23.67;42.04;99148.19;4846198;29;45482;-80
2023/10/25 08:58:24;;;;;;;;;1.00;1.00;;;;;23.74;42.53;99156.84;4846345;29;45309;-79
2023/10/25 09:00:51;;;;;;;;;0.00;0.00;;;;;23.74;42.13;99162.16;4844901;29;47285;-79
2023/10/25 09:03:32;;;;;;;;;0.00;0.00;;;;;23.85;41.93;99173.00;4845637;29;45416;-79
2023/10/25 09:06:02;;;;;;;;;0.33;0.33;;;;;23.79;42.14;99165.94;4845458;29;45358;-80
2023/10/25 09:08:28;;;;;;;;;2.00;1.00;;;;;23.85;42.11;99175.66;4846072;29;45489;-79
2023/10/25 09:11:02;;;;;;;;;0.00;0.00;;;;;23.75;42.38;99162.97;4844728;29;47256;-79
2023/10/25 09:13:35;;;;;;;;;0.00;0.00;;;;;23.78;42.04;99174.97;4845412;29;45437;-79
2023/10/25 09:16:13;;;;;;;;;0.00;0.00;;;;;23.86;42.06;99190.56;4845537;29;45396;-79
2023/10/25 09:18:40;;;;;;;;;1.00;1.00;;;;;23.85;42.22;99183.63;4845863;29;45560;-79
2023/10/25 09:21:07;;;;;;;;;0.00;0.00;;;;;23.84;42.49;99182.81;4845790;29;46216;-79
2023/10/25 09:23:36;;;;;;;;;0.00;0.00;;;;;23.78;42.29;99178.44;4845422;29;45348;-80
2023/10/25 09:26:14;;;;;;;;;0.00;0.00;;;;;23.80;42.01;99178.19;4845429;29;45427;-78
2023/10/25 09:28:40;;;;;;;;;1.00;0.00;;;;;23.86;41.85;99190.56;4845705;29;45397;-79
2023/10/25 09:31:24;;;;;;;;;0.00;0.00;;;;;23.79;42.10;99179.22;4844904;29;45436;-79
2023/10/25 09:33:50;;;;;;;;;0.00;0.00;;;;;23.74;42.15;99174.63;4845620;29;45440;-78
2023/10/25 09:36:20;;;;;;;;;2.00;0.00;;;;;23.72;42.24;99171.41;4845490;29;45383;-79
2023/10/25 09:38:45;;;;;;;;;0.00;0.00;;;;;23.68;42.08;99159.63;4844205;29;45512;-79
2023/10/25 09:41:14;;;;;;;;;0.00;0.00;;;;;23.78;41.96;99177.63;4845251;29;46319;-79
2023/10/25 09:43:49;;;;;;;;;0.00;0.00;;;;;23.75;41.98;99181.56;4845148;29;45287;-80
2023/10/25 09:46:28;;;;;;;;;0.00;0.00;;;;;23.84;41.83;99188.13;4845058;29;45391;-79
2023/10/25 09:49:06;;;;;;;;;0.00;0.00;;;;;23.73;42.32;99165.84;4845073;29;45355;-79
2023/10/25 09:51:44;;;;;;;;;1.00;1.00;;;;;23.69;41.78;99162.03;4845197;29;46365;-78
2023/10/25 09:54:11;;;;;;;;;1.00;1.00;;;;;23.74;42.16;99174.63;4844959;29;45479;-78
2023/10/25 09:56:37;;;;;;;;;0.00;0.00;;;;;23.66;42.40;99159.84;4845260;29;45468;-79
2023/10/25 09:59:06;;;;;;;;;0.00;0.00;;;;;23.71;42.06;99170.59;4845103;29;45381;-79
2023/10/25 10:01:32;;;;;;;;;0.00;0.00;;;;;23.83;42.24;99193.69;4844563;29;46185;-79
2023/10/25 10:03:59;;;;;;;;;0.00;0.00;;;;;23.82;42.19;99194.69;4844996;29;45406;-79
2023/10/25 10:06:53;;;;;;;;;0.00;0.00;;;;;23.77;42.38;99187.44;4844763;29;45276;-79
2023/10/25 10:09:26;;;;;;;;;0.00;0.00;;;;;23.83;42.04;99197.16;4844863;29;45536;-79
2023/10/25 10:11:59;;;;;;;;;0.00;0.00;;;;;23.83;42.49;99191.03;4844558;29;46107;-79
2023/10/25 10:14:28;;;;;;;;;0.33;0.33;;;;;23.83;42.17;99202.44;4842980;29;45511;-79
2023/10/25 10:16:56;;;;;;;;;0.00;0.00;;;;;23.64;42.39;99175.22;4844717;29;45385;-79
2023/10/25 10:19:23;;;;;;;;;0.67;0.67;;;;;23.83;42.44;99207.78;4844408;29;45380;-81
2023/10/25 10:22:13;;;;;;;;;0.00;0.00;;;;;23.77;41.99;99199.91;4844666;29;46193;-79
2023/10/25 10:24:40;;;;;;;;;0.33;0.33;;;;;23.84;42.56;99208.56;4844577;29;45285;-79
2023/10/25 10:27:06;;;;;;;;;1.67;0.00;;;;;23.79;42.44;99198.63;4844609;29;45277;-79
2023/10/25 10:29:31;;;;;;;;;2.00;0.33;;;;;23.84;42.41;99214.69;4844392;29;45322;-78
2023/10/25 10:31:58;;;;;;;;;0.67;0.67;;;;;23.51;41.99;99163.78;4844266;29;46071;-80
2023/10/25 10:34:54;;;;;;;;;0.00;0.00;;;;;23.84;42.34;99220.00;4844313;29;45775;-80
2023/10/25 10:37:24;;;;;;;;;0.00;0.00;;;;;23.67;42.13;99193.34;4844470;29;45303;-79
2023/10/25 10:39:55;;;;;;;;;1.00;1.00;;;;;23.83;42.39;99225.53;4844097;29;45265;-79
2023/10/25 10:42:25;;;;;;;;;0.00;0.00;;;;;23.71;42.00;99201.63;4843887;29;47208;-80
2023/10/25 10:44:51;;;;;;;;;0.67;0.00;;;;;23.78;42.36;99222.78;4843621;29;45309;-80
2023/10/25 10:47:21;;;;;;;;;0.00;0.00;;;;;23.82;42.19;99224.72;4844029;29;45307;-79
2023/10/25 10:49:56;;;;;;;;;1.33;0.00;;;;;23.62;42.21;99196.69;4844724;29;45384;-80
2023/10/25 10:52:22;;;;;;;;;1.00;1.00;;;;;23.83;41.88;99228.19;4844286;29;46218;-80
2023/10/25 10:54:47;;;;;;;;;0.00;0.00;;;;;23.79;42.64;99219.88;4844344;29;45314;-80
2023/10/25 10:57:14;;;;;;;;;1.00;0.00;;;;;23.64;42.14;99204.41;4844612;29;45460;-79
2023/10/25 10:59:44;;;;;;;;;0.00;0.00;;;;;23.83;42.55;99233.50;4844837;29;45397;-80
2023/10/25 11:02:10;;;;;;;;;0.00;0.00;;;;;23.60;42.21;99193.44;4843904;29;46172;-79
2023/10/25 11:04:36;;;;;;;;;1.00;0.00;;;;;23.83;42.45;99229.00;4844140;29;45400;-79
2023/10/25 11:07:01;;;;;;;;;0.00;0.00;;;;;23.79;42.29;99222.53;4843287;29;45916;-79
2023/10/25 11:09:26;;;;;;;;;1.00;1.00;;;;;23.83;42.24;99230.84;4843899;29;45288;-78
2023/10/25 11:12:03;;;;;;;;;0.67;0.67;;;;;23.79;42.29;99219.88;4843524;29;45329;-80
2023/10/25 11:14:39;;;;;;;;;0.00;0.00;;;;;23.80;42.56;99226.00;4843744;29;45273;-80
2023/10/25 11:17:04;;;;;;;;;0.33;0.33;;;;;23.83;42.55;99229.00;4844142;29;45415;-79
2023/10/25 11:19:33;;;;;;;;;1.00;1.00;;;;;23.83;42.32;99228.19;4842779;29;45515;-80
2023/10/25 11:21:58;;;;;;;;;1.00;1.00;;;;;23.65;42.11;99200.72;4843505;29;46191;-80
2023/10/25 11:24:24;;;;;;;;;2.00;0.00;;;;;23.71;42.32;99221.03;4843374;29;45317;-80
2023/10/25 11:26:49;;;;;;;;;3.00;0.00;;;;;23.84;42.33;99237.75;4843279;29;45384;-79
2023/10/25 11:29:14;;;;;;;;;1.00;0.00;;;;;23.83;42.27;99231.66;4842431;29;45371;-80
2023/10/25 11:31:44;;;;;;;;;0.33;0.33;;;;;23.84;42.42;99243.06;4843297;29;48384;-79
2023/10/25 11:34:09;;;;;;;;;1.00;1.00;;;;;23.73;42.59;99228.78;4843646;29;45357;-80
2023/10/25 11:36:34;;;;;;;;;1.00;0.00;;;;;23.83;42.05;99239.63;4843724;29;45428;-79
2023/10/25 11:39:05;;;;;;;;;0.00;0.00;;;;;23.80;42.41;99237.44;4843568;29;45336;-79
2023/10/25 11:41:30;;;;;;;;;1.00;1.00;;;;;23.70;42.20;99221.28;4842894;29;46966;-80
2023/10/25 11:43:57;;;;;;;;;0.00;0.00;;;;;23.84;42.21;99241.22;4843380;29;45409;-79
2023/10/25 11:46:24;;;;;;;;;0.00;0.00;;;;;23.76;42.34;99230.94;4843320;29;45480;-80
2023/10/25 11:48:49;;;;;;;;;0.00;0.00;;;;;23.85;42.29;99247.34;4843271;29;45369;-80
2023/10/25 11:51:18;;;;;;;;;1.33;0.00;;;;;23.84;42.10;99241.22;4842984;29;45480;-80
2023/10/25 11:53:43;;;;;;;;;2.00;1.00;;;;;23.84;41.88;99249.19;4843217;29;45493;-80
2023/10/25 11:56:09;;;;;;;;;0.00;0.00;;;;;23.87;41.99;99245.28;4843097;29;45399;-80
2023/10/25 11:58:34;;;;;;;;;0.67;0.00;;;;;23.87;42.42;99252.44;4843194;29;45487;-79
2023/10/25 12:01:04;;;;;;;;;1.67;0.00;;;;;23.73;42.21;99229.56;4843283;29;46172;-79
2023/10/25 12:03:29;;;;;;;;;1.00;1.00;;;;;23.85;42.14;99252.66;4843271;29;45429;-80
2023/10/25 12:05:55;;;;;;;;;1.00;1.00;;;;;23.80;42.55;99240.09;4843063;29;45364;-79
2023/10/25 12:08:20;;;;;;;;;0.00;0.00;;;;;23.87;42.50;99247.13;4843183;29;45286;-79
2023/10/25 12:10:45;;;;;;;;;2.00;0.00;;;;;23.66;42.07;99212.94;4842605;29;45381;-80
2023/10/25 12:13:11;;;;;;;;;1.00;0.00;;;;;23.69;42.03;99220.47;4842983;29;45388;-79
2023/10/25 12:15:36;;;;;;;;;0.00;0.00;;;;;23.61;42.14;99207.53;4843258;29;45357;-79
2023/10/25 12:18:02;;;;;;;;;0.67;0.00;;;;;23.81;41.97;99239.03;4844402;29;45325;-80
2023/10/25 12:20:27;;;;;;;;;0.33;0.33;;;;;23.71;42.49;99234.31;4846370;29;45399;-79
2023/10/25 12:22:53;;;;;;;;;0.67;0.67;;;;;23.85;42.24;99256.16;4845968;29;45455;-80
2023/10/25 12:25:18;;;;;;;;;2.00;0.00;;;;;23.85;42.12;99258.78;4845924;29;45377;-80
2023/10/25 12:27:44;;;;;;;;;0.00;0.00;;;;;23.76;42.28;99241.56;4846300;29;45353;-79
2023/10/25 12:30:11;;;;;;;;;0.33;0.00;;;;;23.85;42.17;99263.28;4846439;29;46378;-80
2023/10/25 12:32:36;;;;;;;;;0.00;0.00;;;;;23.84;42.25;99265.13;4846422;29;45827;-79
2023/10/25 12:35:01;;;;;;;;;0.00;0.00;;;;;23.75;42.38;99247.94;4846350;29;45302;-80
2023/10/25 12:37:29;;;;;;;;;0.00;0.00;;;;;23.79;42.21;99259.72;4846397;29;45402;-79
2023/10/25 12:39:54;;;;;;;;;0.00;0.00;;;;;23.81;41.96;99262.94;4845692;29;46633;-78
2023/10/25 12:42:20;;;;;;;;;0.00;0.00;;;;;23.86;42.09;99262.25;4845994;29;45310;-79
2023/10/25 12:44:45;;;;;;;;;1.67;0.00;;;;;23.59;42.03;99218.38;4846332;29;45305;-79
2023/10/25 12:47:10;;;;;;;;;0.00;0.00;;;;;23.71;42.34;99244.94;4846172;29;45250;-79
2023/10/25 12:49:36;;;;;;;;;0.33;0.00;;;;;23.82;42.17;99266.41;4846013;29;46140;-79
2023/10/25 12:52:04;;;;;;;;;0.67;0.67;;;;;23.69;42.09;99239.03;4846033;29;45385;-80
2023/10/25 12:54:30;;;;;;;;;1.00;1.00;;;;;23.67;42.41;99243.78;4845839;29;45460;-79
2023/10/25 12:56:55;;;;;;;;;1.00;1.00;;;;;23.71;42.54;99247.59;4846154;29;45420;-80
2023/10/25 12:59:21;;;;;;;;;0.00;0.00;;;;;23.68;42.32;99236.63;4846080;29;46056;-80
2023/10/25 13:01:50;;;;;;;;;0.00;0.00;;;;;23.84;42.44;99267.78;4845829;29;45519;-80
2023/10/25 13:04:16;;;;;;;;;1.00;1.00;;;;;23.74;42.48;99247.13;4845883;29;45377;-79
2023/10/25 13:06:41;;;;;;;;;0.00;0.00;;;;;23.74;42.35;99238.34;4846226;29;45387;-79
2023/10/25 13:09:07;;;;;;;;;0.67;0.00;;;;;23.82;42.27;99259.25;4845493;29;45492;-79
2023/10/25 13:11:33;;;;;;;;;0.00;0.00;;;;;23.80;42.34;99256.03;4845997;29;45400;-78
2023/10/25 13:13:58;;;;;;;;;0.00;0.00;;;;;23.70;42.26;99246.00;4846278;29;45336;-80
2023/10/25 13:16:23;;;;;;;;;0.00;0.00;;;;;23.87;42.38;99263.88;4845830;29;45367;-79
2023/10/25 13:18:49;;;;;;;;;1.00;1.00;;;;;23.88;42.27;99270.81;4845615;29;45517;-80
2023/10/25 13:21:15;;;;;;;;;0.00;0.00;;;;;23.73;42.20;99245.50;4845776;29;45451;-79
2023/10/25 13:23:41;;;;;;;;;2.00;0.00;;;;;23.71;42.27;99247.59;4845535;29;45326;-79
2023/10/25 13:26:06;;;;;;;;;1.00;0.00;;;;;23.80;42.06;99258.69;4845642;29;45352;-79
2023/10/25 13:28:31;;;;;;;;;2.33;1.00;;;;;23.56;42.23;99224.16;4844258;29;49621;-80
2023/10/25 13:30:57;;;;;;;;;0.00;0.00;;;;;23.87;41.94;99266.53;4845661;29;45354;-80
2023/10/25 13:33:22;;;;;;;;;0.00;0.00;;;;;23.83;42.48;99262.72;4845652;29;45483;-80
2023/10/25 13:35:48;;;;;;;;;0.67;0.33;;;;;23.75;42.61;99250.59;4845534;29;45275;-80
2023/10/25 13:38:13;;;;;;;;;0.00;0.00;;;;;23.79;42.29;99258.91;4844955;29;47314;-79
2023/10/25 13:40:39;;;;;;;;;0.00;0.00;;;;;23.87;41.98;99274.50;4845072;29;45503;-79
2023/10/25 13:43:04;;;;;;;;;1.00;1.00;;;;;23.69;42.12;99236.41;4845736;29;45250;-80
2023/10/25 13:45:30;;;;;;;;;0.00;0.00;;;;;23.84;42.38;99259.00;4845688;29;45266;-80
2023/10/25 13:47:55;;;;;;;;;0.67;0.00;;;;;23.74;42.10;99247.13;4845725;29;46100;-80
2023/10/25 13:50:21;;;;;;;;;0.00;0.00;;;;;23.76;42.14;99249.53;4845612;29;45339;-79
2023/10/25 13:52:47;;;;;;;;;0.00;0.00;;;;;23.78;42.43;99260.78;4859404;29;45387;-80
2023/10/25 13:55:12;;;;;;;;;0.00;0.00;;;;;23.84;42.24;99274.94;4845270;29;45340;-79
2023/10/25 13:57:37;;;;;;;;;0.67;0.00;;;;;23.80;42.07;99268.50;4845377;29;46021;-80
2023/10/25 14:00:06;;;;;;;;;0.00;0.00;;;;;23.88;42.23;99277.97;4845383;29;45367;-80
2023/10/25 14:02:32;;;;;;;;;0.00;0.00;;;;;23.82;42.21;99258.44;4845604;29;45416;-80
2023/10/25 14:04:59;;;;;;;;;0.00;0.00;;;;;23.81;42.27;99262.16;4845560;29;45381;-80
2023/10/25 14:07:25;;;;;;;;;0.00;0.00;;;;;23.81;42.51;99273.56;4845412;29;45333;-79
2023/10/25 14:09:50;;;;;;;;;0.00;0.00;;;;;23.88;42.15;99296.56;4845442;29;45362;-80
2023/10/25 14:12:15;;;;;;;;;0.00;0.00;;;;;23.88;42.18;99300.03;4845238;29;45409;-79
2023/10/25 14:14:41;;;;;;;;;1.33;0.00;;;;;23.89;42.07;99296.31;4845287;29;45310;-80
2023/10/25 14:17:06;;;;;;;;;0.00;0.00;;;;;23.81;41.92;99294.03;4844852;29;47070;-79
2023/10/25 14:19:32;;;;;;;;;0.33;0.33;;;;;23.78;42.11;99300.59;4844860;29;45816;-80
2023/10/25 14:21:57;;;;;;;;;1.00;0.00;;;;;23.74;42.20;99294.94;4844928;29;45420;-80
2023/10/25 14:24:22;;;;;;;;;0.67;0.67;;;;;23.73;42.26;99290.63;4844561;29;45493;-80
2023/10/25 14:26:48;;;;;;;;;2.00;0.00;;;;;23.88;42.09;99318.63;4844950;29;46618;-80
2023/10/25 14:29:13;;;;;;;;;0.67;0.67;;;;;23.75;41.92;99298.41;4844948;29;45464;-80
2023/10/25 14:31:38;;;;;;;;;0.00;0.00;;;;;23.79;42.02;99312.00;4843621;29;45459;-77
2023/10/25 14:34:04;;;;;;;;;0.00;0.00;;;;;23.77;42.06;99314.91;4844907;29;45390;-80
2023/10/25 14:36:30;;;;;;;;;0.00;0.00;;;;;23.88;42.21;99336.38;4844123;29;45329;-79
2023/10/25 14:38:56;;;;;;;;;0.00;0.00;;;;;23.89;42.20;99327.41;4844425;29;45381;-81
2023/10/25 14:41:21;;;;;;;;;0.00;0.00;;;;;23.62;42.21;99294.09;4843797;29;45478;-80
2023/10/25 14:43:47;;;;;;;;;0.00;0.00;;;;;23.90;42.37;99337.78;4844421;29;45278;-79
2023/10/25 14:46:14;;;;;;;;;1.00;0.00;;;;;23.88;41.93;99333.72;4844115;29;46101;-79
2023/10/25 14:48:40;;;;;;;;;1.33;0.00;;;;;23.90;42.08;99343.09;4844490;29;45303;-79
2023/10/25 14:51:26;;;;;;;;;0.00;0.00;;;;;23.91;42.32;99343.91;4843922;29;45231;-79
2023/10/25 14:53:55;;;;;;;;;0.00;0.00;;;;;23.91;41.91;99350.03;4844198;29;45345;-79
2023/10/25 14:56:21;;;;;;;;;0.00;0.00;;;;;23.88;42.35;99342.53;4844008;29;45975;-80
2023/10/25 14:58:46;;;;;;;;;1.00;0.00;;;;;23.55;42.07;99296.84;4843822;29;45459;-79
2023/10/25 15:01:23;;;;;;;;;0.00;0.00;;;;;23.80;42.39;99335.69;4843797;29;45781;-79
2023/10/25 15:03:49;;;;;;;;;0.67;0.67;;;;;23.87;42.32;99354.16;4843782;29;45294;-79
2023/10/25 15:06:17;;;;;;;;;0.00;0.00;;;;;23.89;42.44;99362.72;4843549;29;46259;-80
2023/10/25 15:08:43;;;;;;;;;0.00;0.00;;;;;23.87;41.96;99369.28;4843815;29;45444;-80
2023/10/25 15:11:08;;;;;;;;;0.00;0.00;;;;;23.70;42.17;99348.72;4843948;29;45383;-79
2023/10/25 15:13:33;;;;;;;;;0.00;0.00;;;;;23.87;42.13;99369.28;4844072;29;45300;-79
2023/10/25 15:16:00;;;;;;;;;0.00;0.00;;;;;23.89;42.30;99383.19;4843751;29;46913;-79
2023/10/25 15:18:25;;;;;;;;;2.00;0.33;;;;;23.86;41.99;99379.13;4843412;29;45330;-79
2023/10/25 15:20:51;;;;;;;;;0.00;0.00;;;;;23.63;42.38;99338.19;4843682;29;45537;-80
2023/10/25 15:23:18;;;;;;;;;0.00;0.00;;;;;23.78;42.38;99371.50;4844145;29;45487;-79
2023/10/25 15:25:44;;;;;;;;;0.00;0.00;;;;;23.75;42.38;99375.41;4843530;29;46356;-79
2023/10/25 15:28:09;;;;;;;;;1.00;1.00;;;;;23.73;42.23;99366.88;4844044;29;45548;-80
2023/10/25 15:30:35;;;;;;;;;1.00;1.00;;;;;23.77;42.12;99370.66;4843850;29;45421;-79
2023/10/25 15:33:02;;;;;;;;;1.00;1.00;;;;;23.73;42.53;99372.19;4843757;29;45338;-79
2023/10/25 15:35:29;;;;;;;;;0.00;0.00;;;;;23.87;42.42;99399.31;4843465;29;47095;-80
2023/10/25 15:37:55;;;;;;;;;1.00;1.00;;;;;23.77;42.13;99388.44;4844060;29;46175;-80
2023/10/25 15:40:20;;;;;;;;;0.00;0.00;;;;;23.84;42.47;99399.78;4844754;29;45424;-80
2023/10/25 15:42:46;;;;;;;;;0.67;0.67;;;;;23.77;42.36;99383.94;4843740;29;45376;-80
2023/10/25 15:45:15;;;;;;;;;0.00;0.00;;;;;23.55;42.08;99365.09;4841769;29;46147;-79
2023/10/25 15:47:41;;;;;;;;;0.00;0.00;;;;;23.83;42.49;99414.91;4842930;29;45332;-80
2023/10/25 15:50:07;;;;;;;;;0.33;0.33;;;;;23.58;42.25;99381.34;4843377;29;45286;-79
2023/10/25 15:52:33;;;;;;;;;0.00;0.00;;;;;23.62;42.19;99390.50;4843067;29;45337;-80
2023/10/25 15:54:58;;;;;;;;;1.00;1.00;;;;;23.88;42.45;99434.66;4843037;29;45393;-80
2023/10/25 15:57:23;;;;;;;;;0.00;0.00;;;;;23.74;42.05;99418.91;4843134;29;45436;-80
2023/10/25 15:59:49;;;;;;;;;0.00;0.00;;;;;23.87;42.40;99443.66;4843343;29;45301;-79
2023/10/25 16:02:15;;;;;;;;;0.00;0.00;;;;;23.87;42.30;99441.81;4842848;29;45327;-79
2023/10/25 16:04:40;;;;;;;;;1.00;1.00;;;;;23.88;42.20;99442.63;4843079;29;47297;-80
2023/10/25 16:07:06;;;;;;;;;0.00;0.00;;;;;23.88;42.26;99446.09;4843100;29;45463;-79
2023/10/25 16:09:31;;;;;;;;;0.00;0.00;;;;;23.87;42.06;99449.78;4841855;29;45408;-80
2023/10/25 16:11:56;;;;;;;;;0.00;0.00;;;;;23.87;42.14;99451.63;4842998;29;45359;-80
2023/10/25 16:14:22;;;;;;;;;1.33;0.00;;;;;23.76;42.05;99429.34;4842848;29;46304;-79
2023/10/25 16:16:48;;;;;;;;;0.00;0.00;;;;;23.83;41.94;99430.84;4842744;29;45380;-80
2023/10/25 16:19:15;;;;;;;;;0.00;0.00;;;;;23.85;42.23;99447.38;4843826;29;45480;-79
2023/10/25 16:21:43;;;;;;;;;0.00;0.00;;;;;23.85;42.33;99451.88;4842935;29;45392;-79
2023/10/25 16:24:08;;;;;;;;;0.00;0.00;;;;;23.79;42.30;99444.78;4842949;29;45949;-80
2023/10/25 16:26:34;;;;;;;;;0.00;0.00;;;;;23.86;42.07;99458.81;4842501;29;45370;-80
2023/10/25 16:28:59;;;;;;;;;1.00;1.00;;;;;23.71;42.59;99441.41;4843053;29;45578;-80
2023/10/25 16:31:25;;;;;;;;;0.33;0.33;;;;;23.86;42.31;99469.44;4842942;29;45354;-80
2023/10/25 16:33:50;;;;;;;;;0.00;0.00;;;;;23.87;42.44;99464.91;4842893;29;46010;-80
2023/10/25 16:36:15;;;;;;;;;1.33;0.00;;;;;23.85;42.45;99468.63;4841724;29;45357;-79
2023/10/25 16:38:41;;;;;;;;;0.00;0.00;;;;;23.77;42.16;99457.50;4843256;29;45308;-80
2023/10/25 16:41:09;;;;;;;;;0.67;0.00;;;;;23.83;42.29;99461.91;4842977;29;45390;-79
2023/10/25 16:43:36;;;;;;;;;0.00;0.00;;;;;23.85;42.40;99473.09;4842908;29;47223;-79
2023/10/25 16:46:12;;;;;;;;;0.00;0.00;;;;;23.77;42.60;99471.59;4842514;29;45261;-79
2023/10/25 16:48:40;;;;;;;;;0.00;0.00;;;;;23.80;42.31;99471.13;4843143;29;45470;-79
2023/10/25 16:51:18;;;;;;;;;0.67;0.67;;;;;23.73;42.29;99463.25;4842803;29;45312;-79
2023/10/25 16:53:44;;;;;;;;;0.00;0.00;;;;;23.71;42.32;99470.63;4842959;29;47044;-80